Time;durP1;ratioP1;P1;durP2;ratioP2;P2;SDS_P1;SDS_P2;PMS_P1;PMS_P2;Temp;Humidity;BMP_temperature;BMP_pressure;BME280_temperature;BME280_humidity;BME280_pressure;Samples;Min_cycle;Max_cycle;Signal;HPM_P1;HPM_P2
2021/06/18 00:01:03;;;;;;;2.77;0.37;;;;;;;20.67;53.21;100054.67;1715793;81;21116;-57
2021/06/18 00:03:29;;;;;;;1.35;0.20;;;;;;;20.68;53.06;100050.06;1710504;81;21302;-56
2021/06/18 00:05:56;;;;;;;3.17;0.30;;;;;;;20.68;52.79;100056.91;1713838;81;21054;-56
2021/06/18 00:08:22;;;;;;;1.20;0.40;;;;;;;20.67;52.67;100046.46;1710945;81;21526;-58
2021/06/18 00:10:49;;;;;;;7.00;0.37;;;;;;;20.66;52.85;100046.63;1678404;83;21068;-56
2021/06/18 00:13:15;;;;;;;4.47;0.35;;;;;;;20.64;52.82;100041.77;1674914;83;21272;-56
2021/06/18 00:15:41;;;;;;;0.85;0.20;;;;;;;20.62;52.72;100045.13;1675093;83;21540;-57
2021/06/18 00:18:09;;;;;;;2.55;0.23;;;;;;;20.60;52.59;100042.52;1675730;83;21058;-58
2021/06/18 00:20:36;;;;;;;2.33;0.20;;;;;;;20.60;52.33;100049.85;1677749;83;21085;-57
2021/06/18 00:23:02;;;;;;;7.28;0.50;;;;;;;20.59;52.04;100044.88;1677425;83;21077;-57
2021/06/18 00:25:28;;;;;;;3.75;0.30;;;;;;;20.59;52.37;100042.64;1674455;83;21866;-57
2021/06/18 00:27:56;;;;;;;3.15;0.33;;;;;;;20.57;52.05;100044.17;1669061;83;21112;-56
2021/06/18 00:30:22;;;;;;;0.40;0.30;;;;;;;20.54;52.19;100038.08;1673967;83;21094;-57
2021/06/18 00:32:49;;;;;;;3.72;0.60;;;;;;;20.52;51.80;100038.20;1674424;83;21053;-57
2021/06/18 00:35:15;;;;;;;0.60;0.30;;;;;;;20.49;51.66;100039.85;1672073;83;21125;-56
2021/06/18 00:37:42;;;;;;;2.40;0.25;;;;;;;20.47;51.88;100045.94;1671711;83;22581;-56
2021/06/18 00:40:10;;;;;;;4.33;0.30;;;;;;;20.44;51.39;100043.45;1672966;83;21101;-56
2021/06/18 00:42:36;;;;;;;3.05;0.30;;;;;;;20.42;51.93;100051.41;1673353;83;21054;-57
2021/06/18 00:45:04;;;;;;;1.82;0.30;;;;;;;20.39;51.94;100050.69;1675780;83;21133;-57
2021/06/18 00:47:31;;;;;;;3.55;0.50;;;;;;;20.37;52.03;100045.84;1673283;83;21081;-56
2021/06/18 00:49:57;;;;;;;0.30;0.25;;;;;;;20.32;52.13;100039.88;1652580;84;21077;-57
2021/06/18 00:52:24;;;;;;;0.53;0.20;;;;;;;20.29;52.02;100040.61;1678246;83;21157;-57
2021/06/18 00:54:50;;;;;;;10.93;0.75;;;;;;;20.25;52.03;100045.95;1677463;83;21088;-57
2021/06/18 00:57:17;;;;;;;2.67;0.25;;;;;;;20.22;52.30;100040.27;1713909;81;21097;-57
2021/06/18 00:59:43;;;;;;;0.98;0.30;;;;;;;20.19;52.96;100040.52;1714510;81;21066;-57
2021/06/18 01:02:10;;;;;;;2.37;0.20;;;;;;;20.13;53.58;100038.30;1714438;81;21781;-56
2021/06/18 01:04:36;;;;;;;4.62;0.40;;;;;;;20.08;53.71;100042.39;1708348;81;21511;-57
2021/06/18 01:07:16;;;;;;;2.45;0.30;;;;;;;20.02;53.96;100039.67;1693343;81;21058;-56
2021/06/18 01:10:06;;;;;;;1.30;0.40;;;;;;;19.96;54.04;100047.02;1718588;81;20960;-56
2021/06/18 01:12:36;;;;;;;2.67;0.40;;;;;;;19.89;54.58;100049.40;1714748;81;21441;-56
2021/06/18 01:15:14;;;;;;;6.05;0.40;;;;;;;19.84;54.78;100043.92;1712264;81;20931;-57
2021/06/18 01:18:01;;;;;;;1.00;0.30;;;;;;;19.78;55.32;100038.97;1716145;81;20948;-56
2021/06/18 01:20:52;;;;;;;1.02;0.30;;;;;;;19.69;56.02;100046.05;1660409;84;20970;-56
2021/06/18 01:23:33;;;;;;;7.58;0.30;;;;;;;19.56;56.60;100035.23;1639229;83;21009;-56
2021/06/18 01:26:05;;;;;;;1.60;0.30;;;;;;;19.44;56.92;100033.48;1673320;83;21078;-56
2021/06/18 01:28:54;;;;;;;0.82;0.30;;;;;;;19.32;57.43;100034.45;1674486;83;22151;-56
2021/06/18 01:31:40;;;;;;;2.27;0.40;;;;;;;19.20;57.52;100030.85;1653369;83;21036;-56
2021/06/18 01:34:12;;;;;;;3.20;0.30;;;;;;;19.15;58.14;100032.19;1671331;83;22299;-55
2021/06/18 01:36:38;;;;;;;1.87;0.30;;;;;;;19.11;58.41;100034.80;1676204;83;21077;-54
2021/06/18 01:39:05;;;;;;;3.08;0.40;;;;;;;19.07;58.92;100031.44;1717673;81;21081;-53
2021/06/18 01:41:31;;;;;;;1.87;0.30;;;;;;;19.00;59.22;100032.91;1679644;83;21196;-54
2021/06/18 01:43:58;;;;;;;1.50;0.30;;;;;;;18.92;59.49;100028.55;1651800;84;21081;-53
2021/06/18 01:46:29;;;;;;;1.52;0.30;;;;;;;18.83;59.75;100026.05;1716049;81;21390;-56
2021/06/18 01:48:59;;;;;;;2.12;0.30;;;;;;;18.79;60.15;100023.20;1709718;80;21829;-54
2021/06/18 01:51:28;;;;;;;1.42;0.25;;;;;;;18.71;60.62;100027.02;1722747;80;21103;-54
2021/06/18 01:53:57;;;;;;;1.70;0.55;;;;;;;18.61;60.38;100026.48;1700874;82;21426;-57
2021/06/18 01:56:24;;;;;;;2.55;0.20;;;;;;;18.53;60.87;100036.58;1722736;80;21447;-54
2021/06/18 01:58:52;;;;;;;1.47;0.30;;;;;;;18.49;61.12;100031.84;1694249;81;21532;-53
2021/06/18 02:01:20;;;;;;;0.85;0.30;;;;;;;18.49;61.30;100032.33;1717946;80;21077;-55
2021/06/18 02:03:47;;;;;;;2.15;0.30;;;;;;;18.48;61.46;100032.83;1718910;80;21132;-57
2021/06/18 02:06:14;;;;;;;2.05;0.30;;;;;;;18.48;61.75;100021.92;1719502;80;21168;-54
2021/06/18 02:08:41;;;;;;;0.60;0.40;;;;;;;18.44;62.01;100025.89;1719341;80;21154;-53
2021/06/18 02:11:07;;;;;;;2.42;0.40;;;;;;;18.40;62.02;100024.86;1723840;80;21057;-53
2021/06/18 02:13:34;;;;;;;0.82;0.47;;;;;;;18.35;62.26;100023.86;1718778;80;21117;-54
2021/06/18 02:16:00;;;;;;;2.40;0.30;;;;;;;18.27;62.41;100019.48;1692963;80;21124;-54
2021/06/18 02:18:28;;;;;;;1.37;0.40;;;;;;;18.20;62.54;100023.66;1724091;80;21145;-54
2021/06/18 02:20:56;;;;;;;1.92;0.30;;;;;;;18.17;62.84;100035.27;1720386;80;21100;-55
2021/06/18 02:23:29;;;;;;;2.20;0.30;;;;;;;18.16;63.10;100037.13;1719469;80;21208;-56
2021/06/18 02:26:04;;;;;;;4.67;0.30;;;;;;;18.16;63.32;100035.76;1720633;80;21080;-56
2021/06/18 02:28:30;;;;;;;0.50;0.30;;;;;;;18.17;63.40;100031.19;1719601;80;21073;-54
2021/06/18 02:30:57;;;;;;;3.42;0.30;;;;;;;18.13;63.30;100038.21;1720461;80;21121;-54
2021/06/18 02:33:23;;;;;;;2.10;0.30;;;;;;;18.09;63.60;100034.48;1717843;80;21250;-53
2021/06/18 02:35:50;;;;;;;1.80;0.40;;;;;;;18.05;64.04;100034.32;1720617;80;21658;-54
2021/06/18 02:38:16;;;;;;;2.30;0.40;;;;;;;17.99;64.67;100035.66;1726152;80;21072;-55
2021/06/18 02:40:43;;;;;;;3.50;0.40;;;;;;;17.90;65.34;100034.97;1724569;80;21077;-54
2021/06/18 02:43:09;;;;;;;6.83;0.30;;;;;;;17.82;65.81;100043.33;1720881;80;21195;-55
2021/06/18 02:45:35;;;;;;;2.15;0.30;;;;;;;17.76;65.67;100043.30;1726592;80;21113;-55
2021/06/18 02:48:16;;;;;;;3.22;0.57;;;;;;;17.74;65.61;100047.49;1718579;80;21129;-54
2021/06/18 02:51:02;;;;;;;0.70;0.25;;;;;;;17.76;65.52;100044.66;1728333;80;21450;-57
2021/06/18 02:53:40;;;;;;;1.40;0.30;;;;;;;17.82;65.45;100049.65;1726365;80;21074;-53
2021/06/18 02:56:40;;;;;;;4.25;0.40;;;;;;;17.89;64.82;100056.38;1728424;80;21512;-57
2021/06/18 02:59:39;;;;;;;0.53;0.33;;;;;;;17.94;64.72;100052.84;1667346;83;21155;-54
2021/06/18 03:02:08;;;;;;;0.88;0.30;;;;;;;18.00;64.16;100044.21;1667199;83;21784;-56
2021/06/18 03:04:33;;;;;;;5.25;0.40;;;;;;;18.07;63.85;100044.13;1706331;82;21101;-55
2021/06/18 03:07:04;;;;;;;2.05;0.30;;;;;;;18.14;63.48;100051.34;1726591;80;21144;-54
2021/06/18 03:09:37;;;;;;;1.32;0.40;;;;;;;18.20;63.21;100055.48;1725546;80;21776;-55
2021/06/18 03:12:05;;;;;;;2.22;0.40;;;;;;;18.24;62.89;100054.25;1727862;80;21116;-55
2021/06/18 03:14:35;;;;;;;1.55;0.40;;;;;;;18.29;62.64;100059.72;1728158;80;21120;-54
2021/06/18 03:17:01;;;;;;;2.45;0.60;;;;;;;18.34;62.37;100053.45;1726212;80;21104;-54
2021/06/18 03:19:32;;;;;;;0.88;0.40;;;;;;;18.38;62.17;100052.70;1728478;80;21107;-54
2021/06/18 03:22:01;;;;;;;1.85;0.30;;;;;;;18.40;62.05;100043.93;1728154;80;21154;-53
2021/06/18 03:24:29;;;;;;;2.58;0.40;;;;;;;18.44;61.95;100052.27;1731913;80;21168;-54
2021/06/18 03:26:56;;;;;;;1.15;0.50;;;;;;;18.47;61.94;100053.38;1728318;80;21555;-55
2021/06/18 03:29:23;;;;;;;0.45;0.45;;;;;;;18.50;61.44;100053.16;1723288;80;21615;-57
2021/06/18 03:31:49;;;;;;;4.62;0.40;;;;;;;18.56;61.52;100052.68;1725553;80;21105;-54
2021/06/18 03:34:16;;;;;;;2.72;0.40;;;;;;;18.63;61.56;100053.98;1727027;80;22084;-54
2021/06/18 03:36:42;;;;;;;1.02;0.35;;;;;;;18.72;61.22;100056.00;1726886;80;20982;-55
2021/06/18 03:39:09;;;;;;;3.60;0.50;;;;;;;18.79;61.27;100057.30;1727578;80;21685;-52
2021/06/18 03:41:35;;;;;;;5.42;0.40;;;;;;;18.88;60.85;100059.27;1727676;80;21109;-57
2021/06/18 03:44:02;;;;;;;4.87;0.50;;;;;;;18.96;60.63;100062.80;1725679;80;21113;-52
2021/06/18 03:46:29;;;;;;;1.25;0.60;;;;;;;19.04;60.43;100055.38;1727775;80;21111;-53
2021/06/18 03:48:56;;;;;;;1.17;0.50;;;;;;;19.08;60.42;100052.27;1724556;80;21050;-53
2021/06/18 03:51:23;;;;;;;0.60;0.50;;;;;;;19.13;59.84;100054.16;1727049;80;21069;-54
2021/06/18 03:53:49;;;;;;;1.30;0.50;;;;;;;19.16;59.87;100057.13;1726706;80;21119;-55
2021/06/18 03:56:16;;;;;;;1.65;0.70;;;;;;;19.17;59.80;100057.01;1726856;80;21414;-55
2021/06/18 03:58:42;;;;;;;4.97;0.90;;;;;;;19.19;59.70;100057.77;1724450;80;21117;-53
2021/06/18 04:01:11;;;;;;;2.70;0.45;;;;;;;19.20;59.41;100058.14;1728113;80;21081;-53
2021/06/18 04:03:42;;;;;;;0.90;0.60;;;;;;;19.22;59.40;100051.20;1725303;80;21155;-54
2021/06/18 04:06:09;;;;;;;2.35;0.80;;;;;;;19.26;59.72;100059.50;1725640;80;21101;-53
2021/06/18 04:08:36;;;;;;;3.83;0.50;;;;;;;19.29;59.64;100059.27;1723117;80;21089;-54
2021/06/18 04:11:07;;;;;;;1.47;0.50;;;;;;;19.31;58.71;100061.89;1724794;80;21556;-53
2021/06/18 04:13:38;;;;;;;3.27;0.53;;;;;;;19.34;59.11;100063.86;1726500;80;21125;-55
2021/06/18 04:16:12;;;;;;;5.35;0.50;;;;;;;19.35;59.49;100065.60;1727697;80;21046;-57
2021/06/18 04:18:44;;;;;;;2.60;0.70;;;;;;;19.39;59.06;100065.75;1727261;80;21085;-54
2021/06/18 04:21:16;;;;;;;2.00;0.60;;;;;;;19.41;58.96;100069.20;1728309;80;21125;-56
2021/06/18 04:23:42;;;;;;;0.90;0.60;;;;;;;19.44;59.04;100067.60;1727160;80;21112;-54
2021/06/18 04:26:08;;;;;;;2.20;0.70;;;;;;;19.46;58.63;100070.21;1725333;80;21065;-55
2021/06/18 04:28:36;;;;;;;2.45;0.62;;;;;;;19.49;58.63;100075.44;1727940;80;21441;-53
2021/06/18 04:31:04;;;;;;;1.77;0.60;;;;;;;19.51;58.82;100067.52;1726363;80;22226;-54
2021/06/18 04:33:32;;;;;;;1.75;0.70;;;;;;;19.54;58.09;100067.77;1724093;80;21037;-58
2021/06/18 04:35:58;;;;;;;3.50;1.05;;;;;;;19.57;58.61;100066.14;1726079;80;21943;-55
2021/06/18 04:38:24;;;;;;;2.10;0.60;;;;;;;19.63;57.96;100053.38;1726799;80;21077;-55
2021/06/18 04:40:51;;;;;;;3.30;0.50;;;;;;;19.67;58.22;100058.95;1725946;80;21385;-53
2021/06/18 04:43:17;;;;;;;2.40;0.42;;;;;;;19.72;58.28;100057.23;1727933;80;21322;-54
2021/06/18 04:45:44;;;;;;;7.45;0.70;;;;;;;19.80;58.34;100069.77;1726201;80;21327;-54
2021/06/18 04:48:11;;;;;;;1.02;0.50;;;;;;;19.87;57.95;100070.50;1726368;80;21412;-53
2021/06/18 04:50:38;;;;;;;1.92;0.47;;;;;;;19.96;57.63;100075.71;1723074;80;21066;-56
2021/06/18 04:53:06;;;;;;;9.68;0.50;;;;;;;20.05;57.46;100076.82;1715756;81;21102;-56
2021/06/18 04:55:32;;;;;;;0.80;0.40;;;;;;;20.12;57.84;100072.58;1713945;81;21156;-58
2021/06/18 04:57:59;;;;;;;2.72;0.70;;;;;;;20.20;57.59;100075.55;1715516;81;21073;-54
2021/06/18 05:00:25;;;;;;;2.60;0.50;;;;;;;20.27;57.52;100074.03;1719909;81;21620;-54
2021/06/18 05:04:32;;;;;;;3.00;0.70;;;;;;;20.43;57.18;100068.19;1766004;79;28148;-55
2021/06/18 05:06:58;;;;;;;3.15;0.78;;;;;;;20.45;57.43;100071.66;1732447;81;21328;-54
2021/06/18 05:09:25;;;;;;;2.92;0.40;;;;;;;20.52;57.29;100075.61;1733752;81;22667;-58
2021/06/18 05:11:51;;;;;;;2.33;0.57;;;;;;;20.62;57.40;100069.75;1735229;80;22190;-53
2021/06/18 05:14:19;;;;;;;4.47;0.60;;;;;;;20.69;57.23;100065.48;1734891;80;21465;-59
2021/06/18 05:16:45;;;;;;;1.57;0.70;;;;;;;20.76;57.12;100054.37;1732217;81;20997;-55
2021/06/18 05:19:12;;;;;;;4.80;0.70;;;;;;;20.84;56.94;100046.38;1735843;81;21315;-54
2021/06/18 05:21:38;;;;;;;1.05;0.45;;;;;;;20.94;56.40;100051.44;1732453;80;22349;-57
2021/06/18 05:24:06;;;;;;;2.75;0.50;;;;;;;21.04;55.72;100040.06;1734014;81;21021;-54
2021/06/18 05:26:33;;;;;;;1.98;0.40;;;;;;;21.10;55.50;100031.31;1735299;80;20972;-54
2021/06/18 05:28:59;;;;;;;3.90;0.60;;;;;;;21.18;55.39;100036.67;1731040;80;21164;-56
2021/06/18 05:31:26;;;;;;;5.15;0.40;;;;;;;21.26;55.80;100036.87;1730160;81;21171;-59
2021/06/18 05:33:52;;;;;;;4.53;0.40;;;;;;;21.34;55.85;100038.43;1730551;81;22039;-58
2021/06/18 05:36:20;;;;;;;1.77;0.50;;;;;;;21.43;55.45;100038.98;1733682;81;21005;-59
2021/06/18 05:38:47;;;;;;;3.35;0.70;;;;;;;21.48;54.89;100034.83;1729899;81;21037;-58
2021/06/18 05:41:14;;;;;;;1.07;0.45;;;;;;;21.56;55.16;100043.73;1732567;80;21038;-56
2021/06/18 05:43:40;;;;;;;1.55;0.40;;;;;;;21.60;55.07;100038.86;1725174;80;22544;-60
2021/06/18 05:46:07;;;;;;;1.80;0.40;;;;;;;21.65;55.00;100031.08;1728918;80;22285;-60
2021/06/18 05:48:33;;;;;;;1.30;0.30;;;;;;;21.71;55.14;100037.37;1726483;80;21710;-53
2021/06/18 05:51:00;;;;;;;0.60;0.40;;;;;;;21.80;54.84;100036.55;1728276;80;21603;-55
2021/06/18 05:53:27;;;;;;;0.68;0.40;;;;;;;21.89;54.06;100032.47;1730969;80;21176;-56
2021/06/18 05:55:57;;;;;;;2.02;0.35;;;;;;;21.96;54.37;100033.27;1729312;80;21446;-56
2021/06/18 05:58:24;;;;;;;7.37;0.40;;;;;;;22.01;54.71;100034.64;1727312;80;21133;-56
2021/06/18 06:00:50;;;;;;;3.22;0.40;;;;;;;22.11;53.64;100036.91;1724810;80;21148;-59
2021/06/18 06:03:16;;;;;;;9.25;0.50;;;;;;;22.20;52.84;100033.83;1721243;80;21132;-61
2021/06/18 06:05:43;;;;;;;5.65;0.62;;;;;;;22.27;53.47;100035.00;1715628;81;21053;-57
2021/06/18 06:08:12;;;;;;;2.47;0.40;;;;;;;22.32;53.34;100036.80;1716237;80;21136;-57
2021/06/18 06:10:40;;;;;;;0.80;0.30;;;;;;;22.36;52.25;100037.39;1714628;81;21441;-59
2021/06/18 06:13:06;;;;;;;6.75;0.40;;;;;;;22.40;51.89;100032.84;1711449;81;21089;-60
2021/06/18 06:15:35;;;;;;;1.52;0.40;;;;;;;22.44;52.10;100031.56;1712905;81;21490;-55
2021/06/18 06:18:01;;;;;;;3.20;0.40;;;;;;;22.49;52.56;100033.36;1656709;84;21037;-52
2021/06/18 06:20:27;;;;;;;4.28;0.30;;;;;;;22.58;52.11;100024.77;1714953;81;21057;-57
2021/06/18 06:22:54;;;;;;;5.00;0.60;;;;;;;22.68;52.41;100037.99;1720199;81;22613;-54
2021/06/18 06:25:20;;;;;;;2.60;0.30;;;;;;;22.76;51.82;100033.19;1717046;81;21976;-53
2021/06/18 06:27:46;;;;;;;2.17;1.12;;;;;;;22.88;52.06;100038.36;1715099;81;21125;-58
2021/06/18 06:30:14;;;;;;;2.02;0.40;;;;;;;22.99;51.25;100031.86;1714185;81;21132;-55
2021/06/18 06:32:40;;;;;;;0.42;0.30;;;;;;;23.07;50.93;100030.63;1717024;81;21121;-57
2021/06/18 06:35:08;;;;;;;2.77;0.40;;;;;;;23.11;50.91;100025.72;1717651;81;22325;-57
2021/06/18 06:37:36;;;;;;;10.00;0.75;;;;;;;23.16;51.26;100026.13;1717946;81;20876;-52
2021/06/18 06:40:05;;;;;;;6.62;0.50;;;;;;;23.22;50.64;100022.81;1719198;81;20868;-57
2021/06/18 06:42:32;;;;;;;3.30;0.40;;;;;;;23.27;50.70;100019.97;1723714;81;20986;-55
2021/06/18 06:44:58;;;;;;;11.33;1.12;;;;;;;23.31;51.04;100021.39;1720242;81;21911;-57
2021/06/18 06:47:25;;;;;;;7.58;0.47;;;;;;;23.36;50.13;100019.08;1714041;81;21627;-58
2021/06/18 06:49:51;;;;;;;5.15;0.40;;;;;;;23.42;50.26;100024.98;1719017;81;20978;-56
2021/06/18 06:52:19;;;;;;;1.72;0.50;;;;;;;23.48;50.22;100015.62;1714688;81;21630;-57
2021/06/18 06:54:45;;;;;;;2.17;0.40;;;;;;;23.51;50.04;100014.00;1712499;81;21482;-56
2021/06/18 06:57:12;;;;;;;3.37;0.53;;;;;;;23.56;50.01;100015.77;1714514;81;21757;-55
2021/06/18 06:59:38;;;;;;;1.60;0.50;;;;;;;23.57;50.39;100019.39;1713027;81;21130;-58
2021/06/18 07:02:05;;;;;;;2.67;0.45;;;;;;;23.59;50.89;100014.62;1715756;81;21082;-59
2021/06/18 07:04:31;;;;;;;2.52;0.40;;;;;;;23.62;50.81;100011.08;1714310;81;21081;-58
2021/06/18 07:06:58;;;;;;;3.62;0.47;;;;;;;23.65;51.26;100011.25;1712911;81;21070;-58
2021/06/18 07:09:24;;;;;;;3.00;0.60;;;;;;;23.69;50.51;100011.33;1715489;81;21597;-55
2021/06/18 07:11:50;;;;;;;2.45;0.53;;;;;;;23.72;49.62;100007.78;1715143;81;22237;-56
2021/06/18 07:14:17;;;;;;;4.70;0.40;;;;;;;23.72;49.58;100020.15;1713047;81;21078;-56
2021/06/18 07:16:44;;;;;;;0.57;0.40;;;;;;;23.74;50.75;100010.35;1718323;81;21077;-56
2021/06/18 07:19:10;;;;;;;2.27;0.50;;;;;;;23.79;51.07;100015.41;1712660;81;21071;-56
2021/06/18 07:21:36;;;;;;;1.80;0.80;;;;;;;23.82;51.09;100021.99;1714324;81;21013;-58
2021/06/18 07:24:04;;;;;;;5.05;0.60;;;;;;;23.83;50.92;100013.56;1715843;81;21655;-59
2021/06/18 07:26:30;;;;;;;1.52;0.50;;;;;;;23.89;50.80;100013.48;1718173;81;20956;-60
2021/06/18 07:28:57;;;;;;;2.45;0.50;;;;;;;23.95;50.64;100005.48;1719235;81;20950;-56
2021/06/18 07:31:23;;;;;;;4.40;0.60;;;;;;;23.99;50.64;100010.16;1722168;81;20971;-57
2021/06/18 07:33:49;;;;;;;4.53;0.60;;;;;;;24.02;50.94;100004.36;1720299;81;21737;-59
2021/06/18 07:36:16;;;;;;;1.30;0.40;;;;;;;24.07;51.21;100000.66;1721514;81;21085;-60
2021/06/18 07:38:43;;;;;;;2.40;0.55;;;;;;;24.14;49.83;99997.64;1717053;81;20876;-56
2021/06/18 07:41:09;;;;;;;2.80;0.50;;;;;;;24.22;50.42;99999.64;1714846;81;21132;-54
2021/06/18 07:43:36;;;;;;;6.08;0.45;;;;;;;24.28;49.55;100009.51;1716715;81;21050;-55
2021/06/18 07:46:02;;;;;;;4.80;0.60;;;;;;;24.33;50.26;100004.94;1719464;81;20974;-57
2021/06/18 07:48:30;;;;;;;2.62;0.50;;;;;;;24.40;50.39;100014.29;1717391;81;23184;-54
2021/06/18 07:50:56;;;;;;;0.60;0.40;;;;;;;24.48;50.26;100017.13;1712710;80;22049;-59
2021/06/18 07:53:23;;;;;;;2.85;0.45;;;;;;;24.58;49.04;100024.80;1717767;81;22251;-55
2021/06/18 07:55:52;;;;;;;1.80;0.40;;;;;;;24.63;49.08;100031.20;1714731;81;21155;-62
2021/06/18 07:58:17;;;;;;;1.35;0.30;;;;;;;24.70;48.67;100029.54;1713387;81;21418;-56
2021/06/18 08:00:44;;;;;;;1.47;0.40;;;;;;;24.82;48.17;100036.55;1716087;81;21663;-57
2021/06/18 08:03:10;;;;;;;3.35;0.37;;;;;;;24.93;47.19;100041.83;1715869;81;21116;-59
2021/06/18 08:05:37;;;;;;;2.08;0.40;;;;;;;25.03;47.47;100030.72;1713405;81;21141;-60
2021/06/18 08:08:04;;;;;;;5.17;0.40;;;;;;;25.10;47.38;100034.56;1715621;81;21117;-56
2021/06/18 08:10:30;;;;;;;2.02;0.40;;;;;;;25.16;46.84;100036.70;1713369;81;21025;-60
2021/06/18 08:12:56;;;;;;;9.05;0.50;;;;;;;25.20;47.06;100032.59;1717406;81;22600;-61
2021/06/18 08:15:23;;;;;;;5.25;0.50;;;;;;;25.26;47.45;100030.59;1714206;81;21551;-60
2021/06/18 08:17:49;;;;;;;1.62;0.40;;;;;;;25.36;48.05;100041.48;1712502;82;21602;-58
2021/06/18 08:20:24;;;;;;;3.27;0.37;;;;;;;25.43;47.19;100040.70;1651577;84;21066;-54
2021/06/18 08:22:50;;;;;;;3.65;0.40;;;;;;;25.50;47.45;100039.53;1714831;81;21053;-54
2021/06/18 08:25:16;;;;;;;4.03;0.50;;;;;;;25.58;48.10;100040.95;1714722;81;21147;-56
2021/06/18 08:27:42;;;;;;;2.40;0.50;;;;;;;25.67;47.58;100042.77;1717078;81;21074;-54
2021/06/18 08:30:09;;;;;;;3.95;0.40;;;;;;;25.74;46.99;100040.22;1713238;81;21761;-56
2021/06/18 08:32:36;;;;;;;3.15;0.50;;;;;;;25.76;47.32;100042.30;1713193;81;21073;-58
2021/06/18 08:35:03;;;;;;;4.22;0.68;;;;;;;25.80;47.52;100047.31;1650464;84;21125;-54
2021/06/18 08:37:30;;;;;;;6.67;0.40;;;;;;;25.89;47.15;100046.84;1714588;81;21234;-58
2021/06/18 08:39:57;;;;;;;5.70;0.40;;;;;;;25.95;46.53;100047.55;1712205;81;21082;-56
2021/06/18 08:42:23;;;;;;;7.30;0.40;;;;;;;25.95;46.66;100051.17;1713556;81;21088;-60
2021/06/18 08:44:50;;;;;;;2.52;0.40;;;;;;;25.91;46.66;100044.27;1714007;81;21161;-58
2021/06/18 08:47:16;;;;;;;1.95;0.60;;;;;;;25.93;47.25;100041.36;1710481;81;21133;-56
2021/06/18 08:49:43;;;;;;;3.95;0.62;;;;;;;25.97;47.30;100039.47;1719681;81;22642;-56
2021/06/18 08:52:09;;;;;;;3.00;0.60;;;;;;;25.99;47.62;100037.93;1714057;81;21451;-61
2021/06/18 08:54:43;;;;;;;3.10;0.47;;;;;;;26.02;48.87;100047.27;1718145;81;21094;-56
2021/06/18 08:57:15;;;;;;;5.65;0.70;;;;;;;26.12;47.68;100045.20;1715893;81;21070;-56
2021/06/18 08:59:42;;;;;;;3.90;0.60;;;;;;;26.21;46.95;100039.20;1714725;81;21065;-53
2021/06/18 09:02:10;;;;;;;2.77;0.40;;;;;;;26.20;46.50;100038.34;1710387;81;22595;-53
2021/06/18 09:05:13;;;;;;;6.60;0.40;;;;;;;26.14;46.71;100028.50;1720476;81;20944;-55
2021/06/18 09:08:04;;;;;;;1.70;0.50;;;;;;;26.11;47.26;100032.48;1724175;81;21105;-59
2021/06/18 09:10:41;;;;;;;2.15;0.40;;;;;;;26.15;47.45;100041.27;1722808;81;21084;-56
2021/06/18 09:13:22;;;;;;;1.32;0.60;;;;;;;26.16;46.67;100028.69;1723275;81;21456;-54
2021/06/18 09:15:52;;;;;;;3.42;0.50;;;;;;;26.17;47.52;100040.59;1723934;81;21013;-58
2021/06/18 09:18:35;;;;;;;9.65;0.45;;;;;;;26.15;47.46;100031.09;1720469;81;21073;-58
2021/06/18 09:21:18;;;;;;;2.67;0.40;;;;;;;26.18;47.76;100034.91;1720776;81;21097;-56
2021/06/18 09:23:54;;;;;;;0.90;0.40;;;;;;;26.21;47.56;100030.93;1720828;81;22390;-56
2021/06/18 09:26:38;;;;;;;3.37;0.50;;;;;;;26.24;47.68;100034.75;1725741;81;21409;-55
2021/06/18 09:29:18;;;;;;;4.80;0.97;;;;;;;26.28;47.63;100040.33;1722421;81;21120;-56
2021/06/18 09:31:56;;;;;;;3.67;0.30;;;;;;;26.29;47.74;100035.12;1718374;81;21784;-55
2021/06/18 09:35:02;;;;;;;5.92;0.40;;;;;;;26.32;46.72;100037.05;1723479;81;21113;-58
2021/06/18 09:37:39;;;;;;;6.08;0.50;;;;;;;26.31;47.09;100035.83;1722136;81;21109;-58
2021/06/18 09:40:10;;;;;;;1.62;0.40;;;;;;;26.28;47.31;100023.77;1722651;81;21097;-57
2021/06/18 09:42:55;;;;;;;1.45;0.40;;;;;;;26.31;46.56;100035.83;1719928;81;22186;-58
2021/06/18 09:45:29;;;;;;;1.75;0.65;;;;;;;26.26;46.84;100027.20;1721240;81;21104;-55
2021/06/18 09:48:20;;;;;;;5.78;0.50;;;;;;;26.32;47.78;100019.63;1724102;81;21195;-54
2021/06/18 09:50:50;;;;;;;2.98;1.27;;;;;;;26.38;47.77;100013.42;1722808;81;21074;-54
2021/06/18 09:53:21;;;;;;;7.92;0.40;;;;;;;26.52;47.42;100013.30;1725120;81;21068;-58
2021/06/18 09:56:09;;;;;;;17.02;0.60;;;;;;;26.62;47.82;99990.55;1731303;81;20899;-53
2021/06/18 09:58:40;;;;;;;2.00;0.40;;;;;;;26.70;47.19;100015.41;1723210;81;21093;-55
2021/06/18 10:01:21;;;;;;;0.85;0.30;;;;;;;26.74;47.02;100004.34;1724306;81;21081;-57
2021/06/18 10:04:11;;;;;;;6.33;0.40;;;;;;;26.79;46.38;99999.70;1728353;81;20954;-56
2021/06/18 10:06:37;;;;;;;5.08;0.40;;;;;;;26.87;47.12;99995.05;1727292;81;20962;-56
2021/06/18 10:09:07;;;;;;;2.45;0.37;;;;;;;26.96;46.25;99995.42;1727969;81;21337;-58
2021/06/18 10:11:34;;;;;;;1.95;0.35;;;;;;;27.04;46.04;99988.52;1723554;80;21096;-54
2021/06/18 10:14:01;;;;;;;1.05;0.30;;;;;;;27.11;45.43;99996.97;1726104;81;20972;-58
2021/06/18 10:16:27;;;;;;;1.07;0.47;;;;;;;27.10;45.52;99996.62;1726879;80;20864;-59
2021/06/18 10:18:57;;;;;;;2.70;0.40;;;;;;;27.02;45.87;99999.39;1729060;81;20998;-53
2021/06/18 10:21:24;;;;;;;2.83;0.30;;;;;;;26.99;45.57;99999.72;1728094;81;22276;-56
2021/06/18 10:23:56;;;;;;;1.00;0.37;;;;;;;26.97;45.19;99997.12;1727045;81;20950;-56
2021/06/18 10:26:23;;;;;;;5.95;0.40;;;;;;;26.97;45.71;99988.84;1720900;81;21026;-55
2021/06/18 10:29:00;;;;;;;1.67;0.35;;;;;;;26.99;46.75;100007.49;1725937;81;21350;-56
2021/06/18 10:31:32;;;;;;;4.85;0.50;;;;;;;27.04;46.11;100007.86;1727793;81;21468;-57
2021/06/18 10:34:16;;;;;;;5.00;0.40;;;;;;;27.02;45.93;100001.63;1726762;81;21417;-55
2021/06/18 10:36:42;;;;;;;1.60;0.33;;;;;;;27.16;45.71;100000.57;1725929;81;20899;-59
2021/06/18 10:39:15;;;;;;;3.77;0.35;;;;;;;27.16;45.71;100000.57;1722006;81;21270;-59
2021/06/18 10:41:48;;;;;;;3.45;0.37;;;;;;;27.18;45.46;99998.50;1721491;81;21049;-54
2021/06/18 10:44:44;;;;;;;0.82;0.30;;;;;;;27.22;45.84;99998.52;1721050;80;26503;-57
2021/06/18 10:47:33;;;;;;;0.72;0.40;;;;;;;27.20;46.16;99990.39;1724045;81;21066;-57
2021/06/18 10:49:59;;;;;;;1.57;0.37;;;;;;;27.24;45.62;99983.46;1725168;81;21017;-54
2021/06/18 10:52:35;;;;;;;6.00;0.40;;;;;;;27.30;45.56;99982.78;1725139;81;21049;-58
2021/06/18 10:55:02;;;;;;;4.50;0.40;;;;;;;27.35;46.03;100006.60;1726040;81;21583;-56
2021/06/18 10:57:30;;;;;;;1.27;0.40;;;;;;;27.34;45.18;99977.23;1723641;81;21464;-58
2021/06/18 11:00:01;;;;;;;2.62;0.45;;;;;;;27.31;45.89;99978.09;1720958;81;22246;-57
2021/06/18 11:02:31;;;;;;;2.15;0.40;;;;;;;27.33;46.53;99982.93;1723874;81;20961;-59
2021/06/18 11:05:03;;;;;;;4.45;0.37;;;;;;;27.41;45.69;99967.19;1726716;81;21040;-56
2021/06/18 11:07:38;;;;;;;3.40;0.33;;;;;;;27.51;46.34;99969.76;1715148;81;21082;-55
2021/06/18 11:10:13;;;;;;;0.68;0.57;;;;;;;27.59;46.73;99977.20;1713865;81;21376;-55
2021/06/18 11:12:51;;;;;;;3.70;0.50;;;;;;;27.68;45.23;99971.47;1718101;81;21151;-54
2021/06/18 11:15:26;;;;;;;1.72;0.40;;;;;;;27.73;44.51;99971.78;1718012;81;21081;-61
2021/06/18 11:18:16;;;;;;;1.47;0.40;;;;;;;27.76;45.09;99978.34;1715390;81;21061;-59
2021/06/18 11:20:51;;;;;;;5.45;0.50;;;;;;;27.78;44.98;99974.89;1713062;81;21086;-57
2021/06/18 11:23:26;;;;;;;0.88;0.40;;;;;;;27.83;44.55;99968.81;1716208;81;21057;-59
2021/06/18 11:26:04;;;;;;;6.60;0.40;;;;;;;27.85;45.28;99966.73;1714229;81;22371;-56
2021/06/18 11:28:41;;;;;;;1.47;0.37;;;;;;;27.90;44.80;99963.44;1719404;81;21503;-56
2021/06/18 11:31:13;;;;;;;4.12;0.70;;;;;;;27.95;44.70;99965.13;1715269;81;21094;-61
2021/06/18 11:33:49;;;;;;;2.42;0.35;;;;;;;27.97;44.39;99974.98;1714836;81;21627;-56
2021/06/18 11:36:24;;;;;;;0.75;0.40;;;;;;;27.96;44.74;99969.63;1658121;84;21164;-61
2021/06/18 11:38:54;;;;;;;1.67;0.40;;;;;;;27.96;45.68;99968.25;1714560;81;22360;-56
2021/06/18 11:41:25;;;;;;;2.87;0.40;;;;;;;28.01;45.30;99970.80;1716738;81;21058;-57